Time;durP1;ratioP1;P1;durP2;ratioP2;P2;SDS_P1;SDS_P2;PMS_P1;PMS_P2;Temp;Humidity;BMP_temperature;BMP_pressure;BME280_temperature;BME280_humidity;BME280_pressure;Samples;Min_cycle;Max_cycle;Signal;HPM_P1;HPM_P2
2022/04/12 00:01:59;;;;;;;6.40;3.10;;;;;;;7.17;60.88;101484.41;5004850;28;20230;-52
2022/04/12 00:04:25;;;;;;;3.90;2.63;;;;;;;7.11;60.83;101489.47;5022913;28;20306;-52
2022/04/12 00:06:51;;;;;;;4.23;2.97;;;;;;;7.06;60.43;101480.66;5019402;28;20764;-53
2022/04/12 00:09:18;;;;;;;2.27;2.07;;;;;;;7.28;60.40;101489.88;5025741;28;20233;-53
2022/04/12 00:11:44;;;;;;;4.93;2.87;;;;;;;7.43;63.31;101485.88;5015987;28;20236;-53
2022/04/12 00:14:10;;;;;;;3.90;2.83;;;;;;;7.35;61.19;101485.69;5019856;28;20248;-53
2022/04/12 00:16:38;;;;;;;5.87;2.40;;;;;;;7.40;61.04;101484.06;5027514;28;20240;-53
2022/04/12 00:19:04;;;;;;;6.20;2.60;;;;;;;7.34;62.08;101486.56;5021511;28;20302;-53
2022/04/12 00:21:34;;;;;;;3.37;2.00;;;;;;;7.42;61.32;101485.00;5042819;28;20235;-52
2022/04/12 00:24:00;;;;;;;3.07;2.77;;;;;;;7.37;60.48;101486.59;5025011;28;20237;-53
2022/04/12 00:26:27;;;;;;;5.87;2.47;;;;;;;7.52;62.19;101481.75;5025000;28;20899;-52
2022/04/12 00:28:53;;;;;;;6.47;2.33;;;;;;;7.47;61.39;101488.59;5020478;28;20228;-53
2022/04/12 00:31:19;;;;;;;4.67;2.63;;;;;;;7.11;60.51;101484.25;5017524;28;20307;-54
2022/04/12 00:33:47;;;;;;;2.73;2.20;;;;;;;7.03;59.98;101485.78;5018604;28;20261;-54
2022/04/12 00:36:14;;;;;;;2.37;1.90;;;;;;;6.92;62.04;101482.03;5021256;28;20255;-53
2022/04/12 00:38:40;;;;;;;5.50;3.07;;;;;;;7.34;63.32;101483.94;5024663;28;20239;-52
2022/04/12 00:41:08;;;;;;;3.53;2.73;;;;;;;7.30;62.37;101479.47;5025145;28;20236;-53
2022/04/12 00:43:36;;;;;;;3.17;2.47;;;;;;;7.03;60.33;101485.78;5023952;28;20286;-54
2022/04/12 00:46:03;;;;;;;4.83;2.73;;;;;;;7.17;62.37;101476.56;5025594;28;20252;-52
2022/04/12 00:48:30;;;;;;;4.17;2.70;;;;;;;7.14;60.94;101479.09;5013570;28;20260;-53
2022/04/12 00:50:58;;;;;;;4.10;2.40;;;;;;;7.12;62.25;101482.50;5004714;28;20912;-52
2022/04/12 00:53:25;;;;;;;5.73;3.83;;;;;;;7.26;62.73;101470.66;4997839;28;20237;-55
2022/04/12 00:55:52;;;;;;;5.30;2.83;;;;;;;7.38;60.78;101483.16;5005638;28;20241;-53
2022/04/12 00:58:18;;;;;;;4.33;2.67;;;;;;;7.28;62.23;101479.44;5021210;28;20232;-53
2022/04/12 01:00:46;;;;;;;3.07;2.53;;;;;;;7.31;63.12;101476.91;5025080;28;20224;-53
2022/04/12 01:03:13;;;;;;;3.53;2.13;;;;;;;7.34;62.89;101476.13;5020476;28;20224;-53
2022/04/12 01:05:39;;;;;;;3.80;2.53;;;;;;;7.26;61.07;101475.03;5023288;28;20290;-54
2022/04/12 01:08:07;;;;;;;4.60;2.33;;;;;;;7.09;62.48;101469.38;5030233;28;20241;-53
2022/04/12 01:10:34;;;;;;;3.43;2.30;;;;;;;7.20;63.52;101473.16;5024342;28;20784;-52
2022/04/12 01:13:01;;;;;;;5.43;3.00;;;;;;;7.17;63.11;101478.31;5025906;28;20232;-53
2022/04/12 01:15:28;;;;;;;4.77;2.90;;;;;;;7.13;62.19;101477.34;5037446;28;20462;-53
2022/04/12 01:17:55;;;;;;;8.37;2.47;;;;;;;7.10;60.63;101474.66;5025058;28;20236;-52
2022/04/12 01:20:24;;;;;;;5.90;3.13;;;;;;;6.99;61.02;101477.84;5024198;28;20247;-53
2022/04/12 01:22:53;;;;;;;8.83;3.17;;;;;;;7.01;61.58;101477.03;5022781;28;20311;-53
2022/04/12 01:25:21;;;;;;;5.40;2.97;;;;;;;7.00;61.40;101477.88;5023587;28;20240;-53
2022/04/12 01:27:48;;;;;;;3.10;2.57;;;;;;;7.19;61.80;101471.38;5025055;28;20258;-53
2022/04/12 01:30:15;;;;;;;3.00;2.20;;;;;;;7.46;62.31;101473.78;5022319;28;20435;-53
2022/04/12 01:32:41;;;;;;;3.93;2.63;;;;;;;7.63;62.75;101477.66;5025003;28;20830;-53
2022/04/12 01:35:09;;;;;;;6.57;3.03;;;;;;;7.67;61.78;101477.75;5023962;28;20236;-53
2022/04/12 01:37:35;;;;;;;4.37;2.90;;;;;;;7.03;59.78;101474.47;5024640;28;20282;-52
2022/04/12 01:40:02;;;;;;;7.77;3.77;;;;;;;7.20;63.23;101472.28;5014986;28;20701;-53
2022/04/12 01:42:30;;;;;;;3.80;2.83;;;;;;;7.27;62.93;101468.97;5025179;28;20237;-53
2022/04/12 01:44:56;;;;;;;3.10;2.80;;;;;;;7.16;60.77;101469.59;5015455;28;20263;-53
2022/04/12 01:47:22;;;;;;;5.70;2.63;;;;;;;6.93;60.20;101474.22;5024685;28;20244;-53
2022/04/12 01:49:49;;;;;;;4.83;3.23;;;;;;;7.12;63.55;101470.34;5023431;28;20775;-53
2022/04/12 01:52:16;;;;;;;4.70;2.70;;;;;;;7.02;62.98;101477.91;5024556;28;20596;-53
2022/04/12 01:54:42;;;;;;;3.67;2.83;;;;;;;6.66;62.00;101474.38;5019508;28;20235;-52
2022/04/12 01:57:08;;;;;;;3.23;2.83;;;;;;;6.70;62.53;101477.94;5018767;28;20887;-52
2022/04/12 01:59:36;;;;;;;5.90;3.10;;;;;;;6.32;62.56;101476.88;5020191;28;20713;-53
2022/04/12 02:02:03;;;;;;;5.13;3.10;;;;;;;6.26;62.89;101472.41;5010128;28;20225;-52
2022/04/12 02:04:29;;;;;;;5.73;3.30;;;;;;;6.15;63.09;101477.31;5016887;28;20264;-52
2022/04/12 02:06:55;;;;;;;3.10;2.60;;;;;;;6.40;67.32;101467.56;5023501;28;20315;-53
2022/04/12 02:09:22;;;;;;;3.37;2.40;;;;;;;6.56;64.91;101461.03;5023003;28;20232;-53
2022/04/12 02:11:48;;;;;;;4.40;2.83;;;;;;;6.69;65.02;101456.19;5019664;28;20229;-52
2022/04/12 02:14:14;;;;;;;5.00;3.10;;;;;;;6.50;65.00;101456.56;5019928;28;20224;-54
2022/04/12 02:16:42;;;;;;;3.47;2.77;;;;;;;6.92;65.06;101450.69;5024148;28;20347;-53
2022/04/12 02:19:08;;;;;;;5.47;2.37;;;;;;;6.80;64.35;101452.97;5020889;28;20286;-53
2022/04/12 02:21:34;;;;;;;4.30;3.40;;;;;;;6.62;62.98;101454.25;5027580;28;20268;-52
2022/04/12 02:24:01;;;;;;;6.23;2.97;;;;;;;6.89;64.34;101453.22;5025761;28;20335;-53
2022/04/12 02:26:27;;;;;;;4.40;3.50;;;;;;;6.51;64.26;101442.66;5024594;28;20651;-52
2022/04/12 02:28:54;;;;;;;5.57;2.93;;;;;;;6.58;64.50;101449.81;5014856;28;20734;-52
2022/04/12 02:31:20;;;;;;;3.30;2.93;;;;;;;6.41;62.55;101448.47;5015850;28;20774;-53
2022/04/12 02:33:48;;;;;;;3.87;3.37;;;;;;;6.48;65.86;101447.78;5021318;28;20243;-52
2022/04/12 02:36:14;;;;;;;3.93;3.43;;;;;;;6.34;63.24;101454.34;5018878;28;20244;-52
2022/04/12 02:38:40;;;;;;;3.07;2.53;;;;;;;6.57;67.30;101441.97;5022271;28;20248;-52
2022/04/12 02:41:07;;;;;;;6.07;3.60;;;;;;;6.38;64.61;101445.78;5004426;28;20287;-52
2022/04/12 02:43:34;;;;;;;3.90;3.40;;;;;;;6.42;64.39;101452.84;5016513;28;20260;-53
2022/04/12 02:46:01;;;;;;;7.07;2.80;;;;;;;6.54;66.23;101447.97;5019956;28;20240;-52
2022/04/12 02:48:28;;;;;;;4.27;3.40;;;;;;;6.75;65.35;101446.78;5021047;28;20256;-52
2022/04/12 02:50:55;;;;;;;8.30;3.43;;;;;;;6.13;62.58;101445.09;5018944;28;20297;-53
2022/04/12 02:53:22;;;;;;;3.97;3.23;;;;;;;6.45;67.25;101447.72;5023947;28;20251;-52
2022/04/12 02:55:48;;;;;;;5.07;3.50;;;;;;;6.61;62.87;101457.72;5023543;28;20278;-55
2022/04/12 02:58:14;;;;;;;5.50;3.13;;;;;;;6.97;65.62;101459.53;5018897;28;20279;-53
2022/04/12 03:00:41;;;;;;;3.47;2.90;;;;;;;6.75;63.94;101452.00;5024460;28;20237;-52
2022/04/12 03:03:07;;;;;;;5.47;3.70;;;;;;;6.33;62.81;101463.03;5009034;28;20225;-52
2022/04/12 03:05:34;;;;;;;7.23;4.20;;;;;;;6.32;63.88;101469.97;5021195;28;20260;-53
2022/04/12 03:08:02;;;;;;;4.20;3.80;;;;;;;6.22;63.96;101471.44;5023628;28;20290;-52
2022/04/12 03:10:28;;;;;;;5.63;3.60;;;;;;;5.86;63.89;101472.91;5012141;28;20343;-53
2022/04/12 03:12:54;;;;;;;4.50;3.80;;;;;;;6.01;67.00;101464.72;5025847;28;20294;-52
2022/04/12 03:15:21;;;;;;;5.57;3.23;;;;;;;5.74;64.95;101466.50;5022774;28;20295;-53
2022/04/12 03:17:47;;;;;;;7.37;3.03;;;;;;;6.17;65.45;101469.53;5028097;28;20878;-53
2022/04/12 03:20:13;;;;;;;5.63;3.97;;;;;;;6.14;67.06;101472.03;5022605;28;20233;-53
2022/04/12 03:22:41;;;;;;;4.03;3.40;;;;;;;6.38;66.67;101475.34;5031832;28;20361;-53
2022/04/12 03:25:09;;;;;;;6.37;4.10;;;;;;;6.43;67.66;101471.16;5012967;28;20683;-52
2022/04/12 03:27:36;;;;;;;5.00;3.70;;;;;;;6.61;64.93;101469.88;5013332;28;20260;-55
2022/04/12 03:30:03;;;;;;;4.67;3.53;;;;;;;6.43;65.38;101473.75;5015301;28;20256;-56
2022/04/12 03:32:29;;;;;;;4.87;4.00;;;;;;;6.03;65.13;101471.72;5026875;28;20641;-54
2022/04/12 03:34:55;;;;;;;6.00;3.73;;;;;;;6.27;67.40;101473.28;5023510;28;20248;-53
2022/04/12 03:37:22;;;;;;;3.73;2.90;;;;;;;6.26;67.32;101471.53;5026324;28;20228;-53
2022/04/12 03:39:50;;;;;;;4.57;3.40;;;;;;;5.96;64.54;101477.59;5005310;28;20230;-52
2022/04/12 03:42:18;;;;;;;4.43;3.77;;;;;;;5.90;64.97;101485.22;5016839;28;20513;-53
2022/04/12 03:44:45;;;;;;;8.40;3.63;;;;;;;6.05;65.19;101483.09;5022644;28;20245;-53
2022/04/12 03:47:12;;;;;;;5.93;3.90;;;;;;;5.89;65.69;101481.72;5026904;28;20236;-54
2022/04/12 03:49:38;;;;;;;5.73;3.97;;;;;;;5.94;67.90;101487.13;5023381;28;20244;-53
2022/04/12 03:52:05;;;;;;;5.73;3.37;;;;;;;6.31;68.72;101485.56;5026119;28;20229;-53
2022/04/12 03:54:31;;;;;;;4.53;3.67;;;;;;;6.24;65.82;101488.84;5018411;28;20302;-52
2022/04/12 03:56:58;;;;;;;7.13;3.77;;;;;;;6.19;67.53;101486.97;5014848;28;20771;-53
2022/04/12 03:59:25;;;;;;;6.93;3.93;;;;;;;6.05;67.96;101484.81;5012367;28;20821;-52
2022/04/12 04:01:52;;;;;;;8.20;4.60;;;;;;;5.91;67.26;101497.41;5032025;28;20335;-53
2022/04/12 04:04:18;;;;;;;7.27;4.20;;;;;;;5.71;69.04;101492.47;5027916;28;20434;-53
2022/04/12 04:06:44;;;;;;;4.77;4.07;;;;;;;5.58;70.14;101492.03;5023533;28;20252;-52
2022/04/12 04:09:11;;;;;;;6.97;3.93;;;;;;;5.35;68.03;101486.09;5025628;28;20267;-53
2022/04/12 04:11:40;;;;;;;6.57;4.17;;;;;;;5.47;70.44;101487.34;5020321;28;20251;-52
2022/04/12 04:14:06;;;;;;;5.73;4.00;;;;;;;5.41;69.27;101486.31;5022146;28;20233;-53
2022/04/12 04:16:34;;;;;;;9.17;4.50;;;;;;;5.44;72.17;101487.28;5010497;28;20241;-53
2022/04/12 04:19:00;;;;;;;4.77;3.43;;;;;;;5.36;70.76;101483.53;5018473;28;20236;-52
2022/04/12 04:21:27;;;;;;;7.57;4.57;;;;;;;5.79;72.34;101489.19;5022474;28;20228;-53
2022/04/12 04:23:53;;;;;;;6.03;4.00;;;;;;;5.54;69.19;101483.22;5026449;28;20255;-52
2022/04/12 04:26:19;;;;;;;4.93;3.77;;;;;;;5.49;69.60;101477.88;5025884;28;20306;-52
2022/04/12 04:28:48;;;;;;;5.60;4.83;;;;;;;5.82;69.87;101479.75;5024422;28;20335;-53
2022/04/12 04:31:15;;;;;;;5.20;3.90;;;;;;;5.92;70.43;101483.53;5012622;28;20308;-53
2022/04/12 04:33:43;;;;;;;8.40;4.43;;;;;;;5.47;67.57;101486.47;5013345;28;20237;-52
2022/04/12 04:36:09;;;;;;;9.17;4.10;;;;;;;5.62;70.17;101481.78;5017467;28;20290;-53
2022/04/12 04:38:35;;;;;;;5.73;4.77;;;;;;;5.65;70.42;101481.88;5025105;28;20287;-54
2022/04/12 04:41:01;;;;;;;6.43;4.83;;;;;;;5.63;68.37;101480.94;5020712;28;20282;-53
2022/04/12 04:43:28;;;;;;;6.13;4.90;;;;;;;5.41;69.82;101481.09;5023161;28;20645;-54
2022/04/12 04:45:55;;;;;;;6.43;4.37;;;;;;;5.72;70.67;101488.13;5020337;28;20236;-53
2022/04/12 04:48:21;;;;;;;5.30;4.57;;;;;;;5.74;71.62;101491.69;5015308;28;20306;-53
2022/04/12 04:50:49;;;;;;;8.87;4.23;;;;;;;6.12;70.52;101495.47;5019476;28;20233;-52
2022/04/12 04:53:15;;;;;;;7.00;4.50;;;;;;;5.82;67.98;101495.38;5026578;28;20679;-52
2022/04/12 04:55:42;;;;;;;6.90;4.33;;;;;;;5.95;67.80;101491.47;5026221;28;20700;-52
2022/04/12 04:58:09;;;;;;;6.90;4.90;;;;;;;5.81;67.69;101498.84;5040034;28;20248;-52
2022/04/12 05:00:35;;;;;;;6.27;5.13;;;;;;;5.39;67.06;101486.25;5025155;28;20236;-52
2022/04/12 05:03:03;;;;;;;7.13;4.50;;;;;;;5.58;69.96;101498.16;5025554;28;20893;-52
2022/04/12 05:05:29;;;;;;;7.03;4.17;;;;;;;5.60;68.43;101492.97;5022792;28;20262;-54
2022/04/12 05:07:58;;;;;;;10.37;5.13;;;;;;;5.13;69.01;101501.03;5026195;28;20282;-52
2022/04/12 05:10:28;;;;;;;7.17;4.40;;;;;;;5.65;73.79;101501.78;5028102;28;20248;-52
2022/04/12 05:12:55;;;;;;;6.23;4.63;;;;;;;5.85;70.72;101502.44;5017087;28;20261;-54
2022/04/12 05:15:21;;;;;;;9.03;4.93;;;;;;;6.27;71.41;101504.56;5020634;28;20607;-53
2022/04/12 05:17:49;;;;;;;6.00;4.97;;;;;;;6.02;67.42;101509.06;5024871;28;20282;-52
2022/04/12 05:20:16;;;;;;;8.13;5.27;;;;;;;6.10;69.37;101497.13;5021022;28;20308;-52
2022/04/12 05:22:42;;;;;;;6.10;4.60;;;;;;;6.06;67.92;101500.50;5023198;28;20771;-54
2022/04/12 05:25:10;;;;;;;8.40;5.40;;;;;;;5.85;66.62;101505.03;5024486;28;20252;-52
2022/04/12 05:27:37;;;;;;;7.17;5.20;;;;;;;5.87;66.49;101513.78;5022755;28;20672;-53
2022/04/12 05:30:07;;;;;;;7.20;4.37;;;;;;;5.84;66.41;101511.09;5021440;28;20292;-52
2022/04/12 05:32:33;;;;;;;11.17;5.40;;;;;;;5.81;67.83;101511.88;5021260;28;20693;-52
2022/04/12 05:34:59;;;;;;;6.27;4.63;;;;;;;5.97;69.04;101508.06;5007228;28;20241;-53
2022/04/12 05:37:28;;;;;;;5.27;4.37;;;;;;;6.13;67.78;101505.06;5016866;28;20282;-52
2022/04/12 05:39:55;;;;;;;6.17;4.87;;;;;;;5.96;68.46;101503.66;5020789;28;20311;-52
2022/04/12 05:42:23;;;;;;;6.87;4.30;;;;;;;6.06;68.20;101510.03;5019438;28;20232;-53
2022/04/12 05:44:49;;;;;;;5.93;4.63;;;;;;;5.90;66.21;101511.28;5012699;28;20236;-54
2022/04/12 05:47:15;;;;;;;6.77;4.87;;;;;;;6.17;69.39;101509.50;5015112;28;20240;-52
2022/04/12 05:49:42;;;;;;;7.50;4.40;;;;;;;6.43;64.93;101514.63;5023713;28;20256;-52
2022/04/12 05:52:09;;;;;;;5.57;4.97;;;;;;;6.40;64.48;101517.13;5019618;28;20232;-54
2022/04/12 05:54:35;;;;;;;6.07;4.83;;;;;;;6.19;63.96;101517.41;5024712;28;20232;-54
2022/04/12 05:57:02;;;;;;;5.97;4.80;;;;;;;6.29;65.23;101524.66;5018299;28;20236;-53
2022/04/12 05:59:29;;;;;;;5.37;4.40;;;;;;;6.24;64.70;101521.00;5018313;28;20497;-53
2022/04/12 06:01:56;;;;;;;6.50;4.60;;;;;;;6.33;65.48;101521.28;5014947;28;20237;-53
2022/04/12 06:04:22;;;;;;;6.60;4.60;;;;;;;6.66;62.97;101520.47;5015316;28;20294;-53
2022/04/12 06:06:48;;;;;;;5.83;4.53;;;;;;;6.68;63.37;101524.88;5017419;28;20264;-52
2022/04/12 06:09:15;;;;;;;6.93;4.57;;;;;;;6.54;65.08;101541.88;5003810;28;20898;-52
2022/04/12 06:11:41;;;;;;;5.63;4.90;;;;;;;6.69;63.20;101541.41;5012313;28;20307;-52
2022/04/12 06:14:08;;;;;;;7.87;4.90;;;;;;;6.76;64.93;101539.88;5017875;28;20772;-53
2022/04/12 06:16:35;;;;;;;8.33;4.83;;;;;;;6.81;62.52;101538.25;5019823;28;20241;-53
2022/04/12 06:19:02;;;;;;;6.07;4.23;;;;;;;7.05;64.68;101532.81;5030654;28;20285;-54
2022/04/12 06:21:28;;;;;;;5.47;4.60;;;;;;;7.39;64.84;101542.41;5021987;28;20229;-53
2022/04/12 06:23:54;;;;;;;7.00;5.10;;;;;;;7.12;60.67;101540.84;5019330;28;20260;-52
2022/04/12 06:26:21;;;;;;;6.87;5.00;;;;;;;7.16;59.60;101545.31;5022540;28;20245;-54
2022/04/12 06:28:47;;;;;;;8.77;4.67;;;;;;;7.36;63.30;101542.31;5022954;28;20232;-54
2022/04/12 06:31:13;;;;;;;10.87;4.27;;;;;;;7.31;62.04;101539.59;5029651;28;20232;-53
2022/04/12 06:33:41;;;;;;;5.87;4.63;;;;;;;7.35;60.77;101543.16;5024040;28;20781;-53
2022/04/12 06:36:07;;;;;;;6.63;5.40;;;;;;;7.22;59.76;101548.91;5022823;28;20290;-53
2022/04/12 06:38:34;;;;;;;6.47;4.60;;;;;;;7.13;59.15;101554.81;5021823;28;20252;-54
2022/04/12 06:41:00;;;;;;;4.87;3.93;;;;;;;7.50;62.84;101558.34;5028790;28;20250;-54
2022/04/12 06:43:27;;;;;;;7.17;4.93;;;;;;;7.53;60.41;101556.69;5010811;28;20253;-53
2022/04/12 06:45:53;;;;;;;6.90;4.47;;;;;;;7.58;60.15;101559.41;5019351;28;20534;-53
2022/04/12 06:48:19;;;;;;;6.53;5.00;;;;;;;7.44;58.65;101553.88;5025935;28;20302;-53
2022/04/12 06:50:47;;;;;;;7.27;5.03;;;;;;;7.29;57.53;101551.72;5032141;28;20239;-52
2022/04/12 06:53:13;;;;;;;6.93;4.83;;;;;;;7.56;60.76;101558.50;5027674;28;20260;-53
2022/04/12 06:55:40;;;;;;;7.07;5.00;;;;;;;7.47;57.90;101558.25;5025878;28;20232;-52
2022/04/12 06:58:06;;;;;;;4.93;4.43;;;;;;;7.81;60.19;101563.47;5025020;28;20718;-52
2022/04/12 07:00:33;;;;;;;6.87;5.07;;;;;;;7.85;59.14;101560.06;5025714;28;20711;-53
2022/04/12 07:02:59;;;;;;;5.80;4.60;;;;;;;7.92;58.54;101568.06;5021436;28;20224;-54
2022/04/12 07:05:25;;;;;;;8.13;4.90;;;;;;;7.93;56.99;101573.31;5027112;28;20317;-54
2022/04/12 07:07:54;;;;;;;7.33;5.00;;;;;;;8.15;57.27;101573.81;5028680;28;20252;-52
2022/04/12 07:10:21;;;;;;;5.37;4.77;;;;;;;8.17;55.25;101577.34;5030193;28;20236;-53
2022/04/12 07:12:53;;;;;;;6.20;5.27;;;;;;;8.13;56.59;101579.88;5025968;28;20240;-52
2022/04/12 07:15:20;;;;;;;5.87;5.13;;;;;;;8.26;56.22;101583.66;5024752;28;20296;-53
2022/04/12 07:17:46;;;;;;;7.93;4.50;;;;;;;8.42;54.14;101582.28;5027846;28;20224;-52
2022/04/12 07:20:13;;;;;;;6.03;4.77;;;;;;;8.59;55.48;101580.91;5026310;28;20235;-52
2022/04/12 07:22:39;;;;;;;7.07;4.83;;;;;;;8.64;55.54;101582.75;5024112;28;20236;-52
2022/04/12 07:25:08;;;;;;;6.13;4.13;;;;;;;8.73;54.69;101586.44;5029700;28;21010;-52
2022/04/12 07:27:36;;;;;;;5.70;4.87;;;;;;;8.82;53.78;101583.13;5018826;28;20241;-53
2022/04/12 07:30:03;;;;;;;5.90;4.63;;;;;;;8.97;54.22;101580.78;5021253;28;20224;-53
2022/04/12 07:32:30;;;;;;;6.33;5.23;;;;;;;9.27;52.79;101574.38;5021527;28;20280;-54
2022/04/12 07:34:56;;;;;;;5.93;3.70;;;;;;;9.29;53.52;101570.91;5022675;28;20789;-54
2022/04/12 07:37:22;;;;;;;7.97;5.20;;;;;;;9.38;53.41;101570.19;5025746;28;20228;-54
2022/04/12 07:39:49;;;;;;;5.13;4.47;;;;;;;9.45;51.79;101574.69;5026589;28;20286;-54
2022/04/12 07:42:16;;;;;;;7.13;4.70;;;;;;;9.48;49.37;101585.22;5015628;28;20237;-53
2022/04/12 07:44:43;;;;;;;5.63;4.33;;;;;;;9.63;50.64;101574.09;5020987;28;20630;-53
2022/04/12 07:47:09;;;;;;;7.27;4.57;;;;;;;9.71;49.98;101564.63;5024950;28;20618;-53
2022/04/12 07:49:36;;;;;;;9.27;5.53;;;;;;;9.80;49.39;101567.41;5024907;28;20731;-54
2022/04/12 07:52:02;;;;;;;5.60;4.97;;;;;;;9.93;48.49;101568.47;5009325;28;20918;-53
2022/04/12 07:54:28;;;;;;;7.27;4.57;;;;;;;10.14;49.21;101572.25;5008823;28;20260;-53
2022/04/12 07:56:55;;;;;;;7.17;5.00;;;;;;;10.20;49.54;101573.22;5019300;28;20233;-53
2022/04/12 07:59:22;;;;;;;8.90;4.40;;;;;;;10.27;49.49;101569.84;5019666;28;20233;-53
2022/04/12 08:01:49;;;;;;;6.20;4.53;;;;;;;10.52;47.34;101576.28;5014427;28;20618;-54
2022/04/12 08:04:15;;;;;;;5.10;4.60;;;;;;;10.66;45.49;101575.59;5011491;28;20255;-52
2022/04/12 08:06:41;;;;;;;6.80;4.43;;;;;;;10.66;47.55;101572.97;5029118;28;20310;-53
2022/04/12 08:09:09;;;;;;;6.60;4.50;;;;;;;10.89;47.35;101579.38;5022444;28;20221;-52
2022/04/12 08:11:36;;;;;;;7.00;4.60;;;;;;;10.91;47.21;101577.63;5040944;28;20261;-52
2022/04/12 08:14:02;;;;;;;6.57;4.67;;;;;;;10.97;47.78;101572.47;5021616;28;20232;-52
2022/04/12 08:16:30;;;;;;;5.93;4.93;;;;;;;11.16;46.11;101576.19;5024800;28;20325;-52
2022/04/12 08:18:56;;;;;;;4.60;4.10;;;;;;;11.30;45.54;101565.81;5021742;28;20586;-52
2022/04/12 08:21:33;;;;;;;5.67;4.40;;;;;;;11.47;43.70;101577.31;5024290;28;20244;-52
2022/04/12 08:24:00;;;;;;;9.37;5.10;;;;;;;11.54;44.22;101572.13;5031750;28;20285;-53
2022/04/12 08:26:26;;;;;;;6.63;4.83;;;;;;;11.70;42.82;101563.50;5027964;28;20283;-52
2022/04/12 08:28:53;;;;;;;8.37;4.43;;;;;;;11.52;43.81;101568.63;5032451;28;20367;-53
2022/04/12 08:31:19;;;;;;;9.17;4.40;;;;;;;11.68;43.82;101559.97;5037747;28;20278;-53
2022/04/12 08:33:47;;;;;;;6.07;5.13;;;;;;;11.62;41.97;101562.56;5016074;28;20235;-53
2022/04/12 08:36:16;;;;;;;5.93;4.37;;;;;;;11.97;41.01;101559.31;5019942;28;20290;-52
2022/04/12 08:38:43;;;;;;;7.27;5.00;;;;;;;12.04;41.91;101553.22;5021472;28;20294;-52
2022/04/12 08:41:10;;;;;;;8.10;3.97;;;;;;;12.16;43.03;101556.81;5009118;28;20249;-51
2022/04/12 08:43:38;;;;;;;9.00;5.20;;;;;;;11.88;41.41;101561.03;5025319;28;20298;-53
2022/04/12 08:46:06;;;;;;;6.57;4.93;;;;;;;11.97;41.28;101572.47;5028276;28;20240;-52
2022/04/12 08:48:33;;;;;;;4.80;4.30;;;;;;;12.13;40.23;101566.44;5024838;28;20261;-52
2022/04/12 08:51:02;;;;;;;7.73;4.63;;;;;;;12.15;39.59;101569.97;5023950;28;20225;-53
2022/04/12 08:53:28;;;;;;;5.63;4.37;;;;;;;11.97;39.18;101575.09;5023938;28;20264;-53
2022/04/12 08:55:55;;;;;;;7.03;4.50;;;;;;;11.85;41.89;101568.91;5022335;28;20287;-52
2022/04/12 08:58:22;;;;;;;8.17;4.90;;;;;;;11.86;40.98;101564.50;5022044;28;20252;-51
2022/04/12 09:00:49;;;;;;;7.85;4.28;;;;;;;12.13;41.06;101567.31;5025389;28;20256;-50
2022/04/12 09:03:16;;;;;;;7.03;4.83;;;;;;;11.97;39.78;101561.94;5019570;28;20248;-50
2022/04/12 09:05:42;;;;;;;4.38;3.97;;;;;;;12.07;39.71;101558.50;5035818;28;20724;-52
2022/04/12 09:08:26;;;;;;;5.78;4.20;;;;;;;12.03;38.69;101548.84;5024206;28;20241;-53
2022/04/12 09:10:57;;;;;;;5.72;4.07;;;;;;;11.99;38.80;101550.56;5019666;28;20680;-53
2022/04/12 09:13:24;;;;;;;4.13;3.83;;;;;;;12.17;38.41;101544.53;5036297;28;20232;-53
2022/04/12 09:15:51;;;;;;;4.90;4.40;;;;;;;12.03;40.96;101540.94;5023560;28;20252;-53
2022/04/12 09:18:32;;;;;;;5.00;4.47;;;;;;;12.06;40.40;101549.72;5029872;28;20290;-51
2022/04/12 09:21:10;;;;;;;5.77;4.53;;;;;;;12.26;38.55;101554.25;5018686;28;20255;-52
2022/04/12 09:23:38;;;;;;;6.13;4.07;;;;;;;12.51;37.92;101553.47;5022424;28;20750;-50
2022/04/12 09:26:04;;;;;;;19.53;5.10;;;;;;;12.47;38.27;101556.09;5024410;28;20298;-52
2022/04/12 09:28:39;;;;;;;6.50;4.32;;;;;;;12.62;38.63;101545.63;5022231;28;20751;-50
2022/04/12 09:31:11;;;;;;;6.82;4.72;;;;;;;12.72;38.11;101550.03;5025897;28;20731;-54
2022/04/12 09:33:38;;;;;;;6.53;4.80;;;;;;;12.37;39.87;101552.53;5020196;28;20221;-52
2022/04/12 09:36:05;;;;;;;5.75;4.82;;;;;;;12.53;38.41;101543.84;5021230;28;20443;-51
2022/04/12 09:38:33;;;;;;;5.63;4.15;;;;;;;12.40;39.48;101535.00;5027928;28;20399;-53
2022/04/12 09:41:22;;;;;;;6.87;4.40;;;;;;;12.61;37.52;101542.09;5023949;28;20658;-52
2022/04/12 09:44:05;;;;;;;5.88;4.65;;;;;;;13.00;37.32;101544.84;5026630;28;20252;-51
2022/04/12 09:46:33;;;;;;;5.55;4.15;;;;;;;12.98;38.29;101550.09;5017697;28;20302;-53
2022/04/12 09:49:00;;;;;;;6.88;4.45;;;;;;;12.93;38.29;101546.59;5020733;28;20475;-53
2022/04/12 09:51:27;;;;;;;5.70;4.43;;;;;;;12.99;38.52;101548.38;5026657;28;20238;-54
2022/04/12 09:53:54;;;;;;;5.40;4.60;;;;;;;13.09;38.11;101543.13;5025312;28;20622;-51
2022/04/12 09:56:24;;;;;;;7.47;4.72;;;;;;;13.24;38.09;101539.66;5019106;28;20243;-50
2022/04/12 09:58:52;;;;;;;6.25;4.65;;;;;;;13.45;35.98;101528.22;5018124;28;20233;-51
2022/04/12 10:01:19;;;;;;;5.78;3.70;;;;;;;13.17;37.86;101534.34;5021605;28;20240;-52
2022/04/12 10:03:48;;;;;;;5.63;3.83;;;;;;;13.24;38.18;101523.81;5006694;28;20738;-52
2022/04/12 10:06:15;;;;;;;5.47;4.53;;;;;;;13.22;36.61;101519.38;5024418;28;20246;-51
2022/04/12 10:08:42;;;;;;;5.22;4.47;;;;;;;13.20;37.84;101506.22;5022073;28;20757;-52
2022/04/12 10:11:09;;;;;;;7.90;5.00;;;;;;;13.13;37.33;101507.09;5028955;28;20236;-52
2022/04/12 10:13:37;;;;;;;5.50;4.43;;;;;;;13.07;38.10;101515.88;5035015;28;20236;-51
2022/04/12 10:16:03;;;;;;;5.20;4.47;;;;;;;13.23;37.36;101506.22;5015817;28;20726;-51
2022/04/12 10:18:31;;;;;;;5.85;4.78;;;;;;;13.28;36.51;101514.16;5019617;28;20264;-52
2022/04/12 10:20:58;;;;;;;7.07;4.90;;;;;;;13.39;36.08;101511.53;5023751;28;20244;-51
2022/04/12 10:23:26;;;;;;;6.25;4.35;;;;;;;13.58;36.92;101506.25;5023088;28;20286;-51
2022/04/12 10:25:53;;;;;;;4.80;4.32;;;;;;;13.31;37.02;101504.50;5021363;28;20264;-52
2022/04/12 10:28:20;;;;;;;7.15;3.75;;;;;;;13.04;39.34;101509.72;5024319;28;20235;-51
2022/04/12 10:30:48;;;;;;;8.63;4.68;;;;;;;13.47;35.90;101504.47;5022311;28;20225;-52
2022/04/12 10:33:19;;;;;;;5.22;4.28;;;;;;;13.77;35.62;101514.13;5024001;28;20240;-53
2022/04/12 10:36:02;;;;;;;6.10;4.45;;;;;;;13.80;34.22;101501.81;5018778;28;20258;-53
2022/04/12 10:38:38;;;;;;;6.55;4.10;;;;;;;14.02;34.65;101505.25;5021235;28;20228;-51
2022/04/12 10:41:13;;;;;;;7.25;4.65;;;;;;;14.17;35.37;101506.09;5016953;28;20335;-53
2022/04/12 10:43:40;;;;;;;7.97;4.75;;;;;;;14.26;33.41;101503.44;5023136;28;20467;-52
2022/04/12 10:46:12;;;;;;;4.55;4.15;;;;;;;14.12;35.15;101495.56;5021516;28;20237;-51
2022/04/12 10:48:38;;;;;;;5.97;4.47;;;;;;;14.26;33.84;101499.03;5022149;28;20233;-52
2022/04/12 10:51:06;;;;;;;5.10;4.15;;;;;;;14.20;34.07;101499.03;5021644;28;20259;-51
2022/04/12 10:53:53;;;;;;;4.55;4.15;;;;;;;14.40;34.37;101492.81;5022999;28;20228;-52
2022/04/12 10:56:23;;;;;;;4.93;4.40;;;;;;;14.40;34.87;101491.03;5023888;28;20232;-52
2022/04/12 10:58:50;;;;;;;5.97;4.15;;;;;;;14.44;34.23;101494.56;5022995;28;20348;-52
2022/04/12 11:01:30;;;;;;;8.35;4.07;;;;;;;14.45;34.11;101491.88;5019950;28;20311;-51
2022/04/12 11:03:57;;;;;;;4.35;3.95;;;;;;;14.37;34.16;101490.19;5018913;28;20224;-53
2022/04/12 11:06:24;;;;;;;4.63;4.22;;;;;;;14.40;35.02;101491.03;5015693;28;20287;-52
2022/04/12 11:08:53;;;;;;;6.57;5.10;;;;;;;14.47;34.19;101486.63;5022087;28;20394;-52
2022/04/12 11:11:26;;;;;;;8.07;4.97;;;;;;;14.12;34.55;101478.84;5023515;28;20233;-52
2022/04/12 11:13:53;;;;;;;5.35;4.70;;;;;;;13.98;35.54;101478.88;5025492;28;20232;-53
2022/04/12 11:16:21;;;;;;;4.95;3.72;;;;;;;14.28;35.65;101485.81;5020663;28;20270;-53
2022/04/12 11:18:50;;;;;;;5.20;4.18;;;;;;;14.31;32.38;101481.38;5018373;28;20320;-52
2022/04/12 11:21:18;;;;;;;4.80;4.28;;;;;;;14.61;33.43;101468.94;5019056;28;20309;-51
2022/04/12 11:23:45;;;;;;;7.75;4.57;;;;;;;14.81;33.40;101484.66;5006394;28;20287;-55
2022/04/12 11:26:27;;;;;;;6.60;4.10;;;;;;;14.54;33.77;101478.69;5008861;28;20711;-52
2022/04/12 11:28:55;;;;;;;7.63;4.60;;;;;;;14.38;33.18;101465.50;5021012;28;20239;-52
2022/04/12 11:31:22;;;;;;;4.80;4.25;;;;;;;14.31;32.89;101454.97;5017075;28;20232;-54
2022/04/12 11:33:50;;;;;;;5.43;3.88;;;;;;;14.41;33.41;101454.94;5026674;28;20248;-52